Hettick, Illinois
Current Conditions -  °F | °C
As of 4:15 PM on Friday 24 Oct 2014 (Local Time) from K3LF Reporting Station
Clear Clear  
Wind Chill: 68°   Ceiling: Unl
Heat Index: 68°   Visibility: 10mi
Dew Point: 51°   Wind: 9mph
Humidity: 54%   Direction: 200°SSW
Pressure: 30.03"   Gusts: NA
Location:  39.36°N, 90.04°W
Report Text: K3LF 242115Z AUTO 20008KT 10SM CLR 20/10 A3003 RMK AO2 T02000103
Loading
Personal Weather Stations






























Interactive Weather Map
Tropical Storm Tracking
New forecast layout! Learn more

10-Day Weather Forecast

Advertisements
Track Severe Weather on mobile